sensor_id;sensor_type;location;lat;lon;timestamp;temperature;humidity
19732;DHT22;10017;54.350;18.532;2023-04-03T00:00:40;1.50;99.90
19732;DHT22;10017;54.350;18.532;2023-04-03T00:03:12;1.50;99.90
19732;DHT22;10017;54.350;18.532;2023-04-03T00:05:44;1.50;99.90
19732;DHT22;10017;54.350;18.532;2023-04-03T00:08:19;1.50;99.90
19732;DHT22;10017;54.350;18.532;2023-04-03T00:10:51;1.50;99.90
19732;DHT22;10017;54.350;18.532;2023-04-03T00:13:23;1.50;99.90
19732;DHT22;10017;54.350;18.532;2023-04-03T00:15:55;1.40;99.90
19732;DHT22;10017;54.350;18.532;2023-04-03T00:18:27;1.40;99.90
19732;DHT22;10017;54.350;18.532;2023-04-03T00:20:58;1.50;99.90
19732;DHT22;10017;54.350;18.532;2023-04-03T00:23:31;1.40;99.90
19732;DHT22;10017;54.350;18.532;2023-04-03T00:26:03;1.40;99.90
19732;DHT22;10017;54.350;18.532;2023-04-03T00:28:37;1.40;99.90
19732;DHT22;10017;54.350;18.532;2023-04-03T00:31:13;1.40;99.90
19732;DHT22;10017;54.350;18.532;2023-04-03T00:33:45;1.40;99.90
19732;DHT22;10017;54.350;18.532;2023-04-03T00:36:17;1.40;99.90
19732;DHT22;10017;54.350;18.532;2023-04-03T00:38:49;1.40;99.90
19732;DHT22;10017;54.350;18.532;2023-04-03T00:41:23;1.40;99.90
19732;DHT22;10017;54.350;18.532;2023-04-03T00:43:55;1.30;99.90
19732;DHT22;10017;54.350;18.532;2023-04-03T00:46:27;1.40;99.90
19732;DHT22;10017;54.350;18.532;2023-04-03T00:49:01;1.40;99.90
19732;DHT22;10017;54.350;18.532;2023-04-03T00:51:33;1.40;99.90
19732;DHT22;10017;54.350;18.532;2023-04-03T00:54:05;1.40;99.90
19732;DHT22;10017;54.350;18.532;2023-04-03T00:56:39;1.30;99.90
19732;DHT22;10017;54.350;18.532;2023-04-03T00:59:14;1.40;99.90
19732;DHT22;10017;54.350;18.532;2023-04-03T01:01:47;1.30;99.90
19732;DHT22;10017;54.350;18.532;2023-04-03T01:04:32;1.30;99.90
19732;DHT22;10017;54.350;18.532;2023-04-03T01:07:21;1.30;99.90
19732;DHT22;10017;54.350;18.532;2023-04-03T01:09:56;1.30;99.90
19732;DHT22;10017;54.350;18.532;2023-04-03T01:15:09;1.30;99.90
19732;DHT22;10017;54.350;18.532;2023-04-03T01:17:51;1.30;99.90
19732;DHT22;10017;54.350;18.532;2023-04-03T01:28:16;1.20;99.90
19732;DHT22;10017;54.350;18.532;2023-04-03T01:33:31;1.20;99.90
19732;DHT22;10017;54.350;18.532;2023-04-03T01:36:03;1.10;99.90
19732;DHT22;10017;54.350;18.532;2023-04-03T01:38:36;1.10;99.90
19732;DHT22;10017;54.350;18.532;2023-04-03T01:41:07;1.00;99.90
19732;DHT22;10017;54.350;18.532;2023-04-03T01:43:39;1.00;99.90
19732;DHT22;10017;54.350;18.532;2023-04-03T01:46:14;1.00;99.90
19732;DHT22;10017;54.350;18.532;2023-04-03T01:48:46;1.00;99.90
19732;DHT22;10017;54.350;18.532;2023-04-03T01:51:18;1.00;99.90
19732;DHT22;10017;54.350;18.532;2023-04-03T01:53:50;1.00;99.90
19732;DHT22;10017;54.350;18.532;2023-04-03T01:56:24;1.00;99.90
19732;DHT22;10017;54.350;18.532;2023-04-03T01:58:56;1.00;99.90
19732;DHT22;10017;54.350;18.532;2023-04-03T02:01:28;1.10;99.90
19732;DHT22;10017;54.350;18.532;2023-04-03T02:04:02;1.10;99.90
19732;DHT22;10017;54.350;18.532;2023-04-03T02:06:36;1.10;99.90
19732;DHT22;10017;54.350;18.532;2023-04-03T02:09:08;1.10;99.90
19732;DHT22;10017;54.350;18.532;2023-04-03T02:11:40;1.00;99.90
19732;DHT22;10017;54.350;18.532;2023-04-03T02:14:14;1.00;99.90
19732;DHT22;10017;54.350;18.532;2023-04-03T02:16:46;1.00;99.90
19732;DHT22;10017;54.350;18.532;2023-04-03T02:19:20;1.10;99.90
19732;DHT22;10017;54.350;18.532;2023-04-03T02:21:52;1.00;99.90
19732;DHT22;10017;54.350;18.532;2023-04-03T02:24:24;1.00;99.90
19732;DHT22;10017;54.350;18.532;2023-04-03T02:26:58;1.10;99.90
19732;DHT22;10017;54.350;18.532;2023-04-03T02:29:30;1.10;99.90
19732;DHT22;10017;54.350;18.532;2023-04-03T02:32:02;1.10;99.90
19732;DHT22;10017;54.350;18.532;2023-04-03T02:34:34;1.10;99.90
19732;DHT22;10017;54.350;18.532;2023-04-03T02:37:06;1.10;99.90
19732;DHT22;10017;54.350;18.532;2023-04-03T02:39:40;1.10;99.90
19732;DHT22;10017;54.350;18.532;2023-04-03T02:42:11;1.10;99.90
19732;DHT22;10017;54.350;18.532;2023-04-03T02:44:43;1.10;99.90
19732;DHT22;10017;54.350;18.532;2023-04-03T02:47:16;1.10;99.90
19732;DHT22;10017;54.350;18.532;2023-04-03T02:49:48;1.00;99.90
19732;DHT22;10017;54.350;18.532;2023-04-03T02:52:20;1.10;99.90
19732;DHT22;10017;54.350;18.532;2023-04-03T02:54:51;1.10;99.90
19732;DHT22;10017;54.350;18.532;2023-04-03T02:57:23;1.10;99.90
19732;DHT22;10017;54.350;18.532;2023-04-03T02:59:55;1.10;99.90
19732;DHT22;10017;54.350;18.532;2023-04-03T03:02:27;1.20;99.90
19732;DHT22;10017;54.350;18.532;2023-04-03T03:05:01;1.20;99.90
19732;DHT22;10017;54.350;18.532;2023-04-03T03:07:36;1.20;99.90
19732;DHT22;10017;54.350;18.532;2023-04-03T03:10:08;1.20;99.90
19732;DHT22;10017;54.350;18.532;2023-04-03T03:12:40;1.20;99.90
19732;DHT22;10017;54.350;18.532;2023-04-03T03:15:12;1.20;99.90
19732;DHT22;10017;54.350;18.532;2023-04-03T03:17:44;1.20;99.90
19732;DHT22;10017;54.350;18.532;2023-04-03T03:20:16;1.30;99.90
19732;DHT22;10017;54.350;18.532;2023-04-03T03:22:48;1.30;99.90
19732;DHT22;10017;54.350;18.532;2023-04-03T03:25:22;1.20;99.90
19732;DHT22;10017;54.350;18.532;2023-04-03T03:27:54;1.30;99.90
19732;DHT22;10017;54.350;18.532;2023-04-03T03:30:26;1.20;99.90
19732;DHT22;10017;54.350;18.532;2023-04-03T03:33:00;1.30;99.90
19732;DHT22;10017;54.350;18.532;2023-04-03T03:35:33;1.20;99.90
19732;DHT22;10017;54.350;18.532;2023-04-03T03:38:05;1.30;99.90
19732;DHT22;10017;54.350;18.532;2023-04-03T03:40:37;1.30;99.90
19732;DHT22;10017;54.350;18.532;2023-04-03T03:43:09;1.30;99.90
19732;DHT22;10017;54.350;18.532;2023-04-03T03:45:40;1.30;99.90
19732;DHT22;10017;54.350;18.532;2023-04-03T03:48:15;1.30;99.90
19732;DHT22;10017;54.350;18.532;2023-04-03T03:50:47;1.30;99.90
19732;DHT22;10017;54.350;18.532;2023-04-03T03:53:19;1.20;99.90
19732;DHT22;10017;54.350;18.532;2023-04-03T03:55:51;1.20;99.90
19732;DHT22;10017;54.350;18.532;2023-04-03T03:58:23;1.30;99.90
19732;DHT22;10017;54.350;18.532;2023-04-03T04:00:54;1.20;99.90
19732;DHT22;10017;54.350;18.532;2023-04-03T04:03:26;1.20;99.90
19732;DHT22;10017;54.350;18.532;2023-04-03T04:05:58;1.30;99.90
19732;DHT22;10017;54.350;18.532;2023-04-03T04:08:30;1.20;99.90
19732;DHT22;10017;54.350;18.532;2023-04-03T04:11:02;1.20;99.90
19732;DHT22;10017;54.350;18.532;2023-04-03T04:13:34;1.20;99.90
19732;DHT22;10017;54.350;18.532;2023-04-03T04:16:06;1.20;99.90
19732;DHT22;10017;54.350;18.532;2023-04-03T04:18:38;1.20;99.90
19732;DHT22;10017;54.350;18.532;2023-04-03T04:21:10;1.20;99.90
19732;DHT22;10017;54.350;18.532;2023-04-03T04:23:41;1.20;99.90
19732;DHT22;10017;54.350;18.532;2023-04-03T04:26:13;1.10;99.90
19732;DHT22;10017;54.350;18.532;2023-04-03T04:28:45;1.10;99.90
19732;DHT22;10017;54.350;18.532;2023-04-03T04:31:17;1.10;99.90
19732;DHT22;10017;54.350;18.532;2023-04-03T04:33:49;1.00;99.90
19732;DHT22;10017;54.350;18.532;2023-04-03T04:36:21;1.10;99.90
19732;DHT22;10017;54.350;18.532;2023-04-03T04:38:55;1.00;99.90
19732;DHT22;10017;54.350;18.532;2023-04-03T04:41:28;1.00;99.90
19732;DHT22;10017;54.350;18.532;2023-04-03T04:44:02;1.00;99.90
19732;DHT22;10017;54.350;18.532;2023-04-03T04:46:34;1.10;99.90
19732;DHT22;10017;54.350;18.532;2023-04-03T04:49:08;1.00;99.90
19732;DHT22;10017;54.350;18.532;2023-04-03T04:51:40;1.10;99.90
19732;DHT22;10017;54.350;18.532;2023-04-03T04:54:22;1.10;99.90
19732;DHT22;10017;54.350;18.532;2023-04-03T04:56:54;1.10;99.90
19732;DHT22;10017;54.350;18.532;2023-04-03T04:59:26;1.10;99.90
19732;DHT22;10017;54.350;18.532;2023-04-03T05:01:58;1.10;99.90
19732;DHT22;10017;54.350;18.532;2023-04-03T05:04:30;1.10;99.90
19732;DHT22;10017;54.350;18.532;2023-04-03T05:07:02;1.20;99.90
19732;DHT22;10017;54.350;18.532;2023-04-03T05:09:34;1.20;99.90
19732;DHT22;10017;54.350;18.532;2023-04-03T05:12:05;1.10;99.90
19732;DHT22;10017;54.350;18.532;2023-04-03T05:14:40;1.20;99.90
19732;DHT22;10017;54.350;18.532;2023-04-03T05:17:12;1.20;99.90
19732;DHT22;10017;54.350;18.532;2023-04-03T05:19:46;1.20;99.90
19732;DHT22;10017;54.350;18.532;2023-04-03T05:22:18;1.20;99.90
19732;DHT22;10017;54.350;18.532;2023-04-03T05:24:50;1.20;99.90
19732;DHT22;10017;54.350;18.532;2023-04-03T05:27:22;1.20;99.90
19732;DHT22;10017;54.350;18.532;2023-04-03T05:29:55;1.20;99.90
19732;DHT22;10017;54.350;18.532;2023-04-03T05:32:27;1.20;99.90
19732;DHT22;10017;54.350;18.532;2023-04-03T05:34:59;1.20;99.90
19732;DHT22;10017;54.350;18.532;2023-04-03T05:37:31;1.30;99.90
19732;DHT22;10017;54.350;18.532;2023-04-03T05:40:04;1.20;99.90
19732;DHT22;10017;54.350;18.532;2023-04-03T05:42:36;1.20;99.90
19732;DHT22;10017;54.350;18.532;2023-04-03T05:45:08;1.30;99.90
19732;DHT22;10017;54.350;18.532;2023-04-03T05:47:40;1.30;99.90
19732;DHT22;10017;54.350;18.532;2023-04-03T05:50:14;1.40;99.90
19732;DHT22;10017;54.350;18.532;2023-04-03T05:52:46;1.50;99.90
19732;DHT22;10017;54.350;18.532;2023-04-03T05:55:20;1.60;99.90
19732;DHT22;10017;54.350;18.532;2023-04-03T05:57:52;1.70;99.90
19732;DHT22;10017;54.350;18.532;2023-04-03T06:00:23;1.60;99.90
19732;DHT22;10017;54.350;18.532;2023-04-03T06:02:59;1.50;99.90
19732;DHT22;10017;54.350;18.532;2023-04-03T06:05:31;1.40;99.90
19732;DHT22;10017;54.350;18.532;2023-04-03T06:08:03;1.40;99.90
19732;DHT22;10017;54.350;18.532;2023-04-03T06:10:35;1.40;99.90
19732;DHT22;10017;54.350;18.532;2023-04-03T06:13:10;1.40;99.90
19732;DHT22;10017;54.350;18.532;2023-04-03T06:15:42;1.40;99.90
19732;DHT22;10017;54.350;18.532;2023-04-03T06:18:13;1.40;99.90
19732;DHT22;10017;54.350;18.532;2023-04-03T06:20:45;1.50;99.90
19732;DHT22;10017;54.350;18.532;2023-04-03T06:23:17;1.60;99.90
19732;DHT22;10017;54.350;18.532;2023-04-03T06:25:49;1.80;99.90
19732;DHT22;10017;54.350;18.532;2023-04-03T06:28:21;1.80;99.90
19732;DHT22;10017;54.350;18.532;2023-04-03T06:30:53;1.70;99.90
19732;DHT22;10017;54.350;18.532;2023-04-03T06:33:25;1.70;99.90
19732;DHT22;10017;54.350;18.532;2023-04-03T06:35:58;1.80;99.90
19732;DHT22;10017;54.350;18.532;2023-04-03T06:38:30;1.90;99.90
19732;DHT22;10017;54.350;18.532;2023-04-03T06:41:04;2.20;99.90
19732;DHT22;10017;54.350;18.532;2023-04-03T06:43:36;2.90;99.90
19732;DHT22;10017;54.350;18.532;2023-04-03T06:46:18;4.30;99.90
19732;DHT22;10017;54.350;18.532;2023-04-03T06:48:51;5.70;99.90
19732;DHT22;10017;54.350;18.532;2023-04-03T06:51:24;6.30;99.90
19732;DHT22;10017;54.350;18.532;2023-04-03T06:53:57;7.30;99.90
19732;DHT22;10017;54.350;18.532;2023-04-03T06:56:29;8.20;99.90
19732;DHT22;10017;54.350;18.532;2023-04-03T06:59:01;9.00;99.90
19732;DHT22;10017;54.350;18.532;2023-04-03T07:01:33;10.00;99.90
19732;DHT22;10017;54.350;18.532;2023-04-03T07:04:07;11.00;99.90
19732;DHT22;10017;54.350;18.532;2023-04-03T07:06:39;11.30;99.90
19732;DHT22;10017;54.350;18.532;2023-04-03T07:09:14;9.40;99.40
19732;DHT22;10017;54.350;18.532;2023-04-03T07:11:46;7.30;99.90
19732;DHT22;10017;54.350;18.532;2023-04-03T07:14:18;6.50;99.90
19732;DHT22;10017;54.350;18.532;2023-04-03T07:16:50;6.10;99.90
19732;DHT22;10017;54.350;18.532;2023-04-03T07:19:22;5.50;99.90
19732;DHT22;10017;54.350;18.532;2023-04-03T07:21:58;5.40;99.90
19732;DHT22;10017;54.350;18.532;2023-04-03T07:24:30;6.10;99.90
19732;DHT22;10017;54.350;18.532;2023-04-03T07:27:02;6.10;99.90
19732;DHT22;10017;54.350;18.532;2023-04-03T07:29:34;6.40;99.90
19732;DHT22;10017;54.350;18.532;2023-04-03T07:32:09;6.20;99.90
19732;DHT22;10017;54.350;18.532;2023-04-03T07:34:41;5.50;99.90
19732;DHT22;10017;54.350;18.532;2023-04-03T07:37:13;4.70;99.90
19732;DHT22;10017;54.350;18.532;2023-04-03T07:39:46;4.10;99.90
19732;DHT22;10017;54.350;18.532;2023-04-03T07:42:20;3.70;99.90
19732;DHT22;10017;54.350;18.532;2023-04-03T07:44:53;3.60;99.90
19732;DHT22;10017;54.350;18.532;2023-04-03T07:47:24;3.90;99.90
19732;DHT22;10017;54.350;18.532;2023-04-03T07:49:59;4.00;99.90
19732;DHT22;10017;54.350;18.532;2023-04-03T07:52:30;4.00;99.90
19732;DHT22;10017;54.350;18.532;2023-04-03T07:55:02;4.00;99.90
19732;DHT22;10017;54.350;18.532;2023-04-03T07:57:34;3.80;99.90
19732;DHT22;10017;54.350;18.532;2023-04-03T08:00:06;3.90;99.90
19732;DHT22;10017;54.350;18.532;2023-04-03T08:02:38;3.90;99.90
19732;DHT22;10017;54.350;18.532;2023-04-03T08:05:10;3.70;99.90
19732;DHT22;10017;54.350;18.532;2023-04-03T08:07:43;3.70;99.90
19732;DHT22;10017;54.350;18.532;2023-04-03T08:10:14;3.50;99.90
19732;DHT22;10017;54.350;18.532;2023-04-03T08:12:47;3.40;99.90
19732;DHT22;10017;54.350;18.532;2023-04-03T08:15:19;3.30;99.90
19732;DHT22;10017;54.350;18.532;2023-04-03T08:17:51;3.20;99.90
19732;DHT22;10017;54.350;18.532;2023-04-03T08:20:25;3.40;99.90
19732;DHT22;10017;54.350;18.532;2023-04-03T08:22:57;3.20;99.90
19732;DHT22;10017;54.350;18.532;2023-04-03T08:25:29;3.20;99.90
19732;DHT22;10017;54.350;18.532;2023-04-03T08:28:02;3.40;99.90
19732;DHT22;10017;54.350;18.532;2023-04-03T08:30:34;3.80;99.90
19732;DHT22;10017;54.350;18.532;2023-04-03T08:33:06;3.80;99.90
19732;DHT22;10017;54.350;18.532;2023-04-03T08:35:39;3.40;99.90
19732;DHT22;10017;54.350;18.532;2023-04-03T08:38:12;3.50;99.90
19732;DHT22;10017;54.350;18.532;2023-04-03T08:40:44;3.80;99.90
19732;DHT22;10017;54.350;18.532;2023-04-03T08:45:55;4.10;99.90
19732;DHT22;10017;54.350;18.532;2023-04-03T08:48:27;4.30;99.90
19732;DHT22;10017;54.350;18.532;2023-04-03T08:51:03;4.40;99.90
19732;DHT22;10017;54.350;18.532;2023-04-03T08:53:56;4.30;99.90
19732;DHT22;10017;54.350;18.532;2023-04-03T08:56:30;4.20;99.90
19732;DHT22;10017;54.350;18.532;2023-04-03T08:59:07;4.30;99.90
19732;DHT22;10017;54.350;18.532;2023-04-03T09:01:42;4.50;99.90
19732;DHT22;10017;54.350;18.532;2023-04-03T09:04:17;4.40;99.90
19732;DHT22;10017;54.350;18.532;2023-04-03T09:06:52;4.20;99.90
19732;DHT22;10017;54.350;18.532;2023-04-03T09:09:32;3.90;99.90
19732;DHT22;10017;54.350;18.532;2023-04-03T09:23:03;3.60;99.90
19732;DHT22;10017;54.350;18.532;2023-04-03T09:25:38;3.60;99.90
19732;DHT22;10017;54.350;18.532;2023-04-03T09:28:13;3.60;99.90
19732;DHT22;10017;54.350;18.532;2023-04-03T09:30:45;3.90;99.90
19732;DHT22;10017;54.350;18.532;2023-04-03T09:33:16;4.20;99.90
19732;DHT22;10017;54.350;18.532;2023-04-03T09:35:51;4.50;99.90
19732;DHT22;10017;54.350;18.532;2023-04-03T09:38:23;4.70;99.90
19732;DHT22;10017;54.350;18.532;2023-04-03T09:41:05;4.30;99.90
19732;DHT22;10017;54.350;18.532;2023-04-03T09:43:37;4.20;99.90
19732;DHT22;10017;54.350;18.532;2023-04-03T09:46:22;4.00;99.90
19732;DHT22;10017;54.350;18.532;2023-04-03T09:49:03;3.80;99.90
19732;DHT22;10017;54.350;18.532;2023-04-03T09:51:42;3.90;99.90
19732;DHT22;10017;54.350;18.532;2023-04-03T09:55:02;4.10;99.90
19732;DHT22;10017;54.350;18.532;2023-04-03T09:57:12;4.10;99.90
19732;DHT22;10017;54.350;18.532;2023-04-03T09:59:46;4.00;99.90
19732;DHT22;10017;54.350;18.532;2023-04-03T10:04:59;4.20;99.90
19732;DHT22;10017;54.350;18.532;2023-04-03T10:07:40;4.30;99.90
19732;DHT22;10017;54.350;18.532;2023-04-03T10:10:22;4.60;99.90
19732;DHT22;10017;54.350;18.532;2023-04-03T10:13:05;4.40;99.90
19732;DHT22;10017;54.350;18.532;2023-04-03T10:15:42;4.40;99.90
19732;DHT22;10017;54.350;18.532;2023-04-03T10:20:57;4.00;99.90
19732;DHT22;10017;54.350;18.532;2023-04-03T10:23:42;3.80;99.90
19732;DHT22;10017;54.350;18.532;2023-04-03T10:31:43;3.30;1.00
19732;DHT22;10017;54.350;18.532;2023-04-03T10:39:39;3.50;1.00
19732;DHT22;10017;54.350;18.532;2023-04-03T10:50:39;3.90;1.00
19732;DHT22;10017;54.350;18.532;2023-04-03T10:58:26;3.80;1.00
19732;DHT22;10017;54.350;18.532;2023-04-03T11:01:02;3.90;1.00
19732;DHT22;10017;54.350;18.532;2023-04-03T11:03:40;3.90;1.00
19732;DHT22;10017;54.350;18.532;2023-04-03T11:06:15;3.80;1.00
19732;DHT22;10017;54.350;18.532;2023-04-03T11:11:32;3.70;1.00
19732;DHT22;10017;54.350;18.532;2023-04-03T11:14:40;3.70;1.00
19732;DHT22;10017;54.350;18.532;2023-04-03T11:19:43;3.50;1.00
19732;DHT22;10017;54.350;18.532;2023-04-03T11:27:58;3.50;1.00
19732;DHT22;10017;54.350;18.532;2023-04-03T11:30:39;3.50;1.00
19732;DHT22;10017;54.350;18.532;2023-04-03T11:35:45;4.10;1.00
19732;DHT22;10017;54.350;18.532;2023-04-03T11:38:26;3.90;1.00
19732;DHT22;10017;54.350;18.532;2023-04-03T11:41:00;4.10;1.00
19732;DHT22;10017;54.350;18.532;2023-04-03T11:43:33;4.30;1.00
19732;DHT22;10017;54.350;18.532;2023-04-03T11:46:05;4.40;1.00
19732;DHT22;10017;54.350;18.532;2023-04-03T11:48:41;4.30;1.00
19732;DHT22;10017;54.350;18.532;2023-04-03T11:53:52;4.00;1.00
19732;DHT22;10017;54.350;18.532;2023-04-03T12:04:21;3.60;1.00
19732;DHT22;10017;54.350;18.532;2023-04-03T12:06:58;3.40;1.00
19732;DHT22;10017;54.350;18.532;2023-04-03T12:12:23;3.40;1.00
19732;DHT22;10017;54.350;18.532;2023-04-03T12:14:56;3.60;1.00
19732;DHT22;10017;54.350;18.532;2023-04-03T12:17:43;3.50;1.00
19732;DHT22;10017;54.350;18.532;2023-04-03T12:26:00;3.80;1.00
19732;DHT22;10017;54.350;18.532;2023-04-03T12:28:36;3.60;1.00
19732;DHT22;10017;54.350;18.532;2023-04-03T12:31:11;3.30;1.00
19732;DHT22;10017;54.350;18.532;2023-04-03T12:36:26;3.10;1.00
19732;DHT22;10017;54.350;18.532;2023-04-03T12:41:50;3.10;1.00
19732;DHT22;10017;54.350;18.532;2023-04-03T12:47:31;3.30;1.00
19732;DHT22;10017;54.350;18.532;2023-04-03T12:50:01;3.30;1.00
19732;DHT22;10017;54.350;18.532;2023-04-03T12:52:39;3.50;1.00
19732;DHT22;10017;54.350;18.532;2023-04-03T12:55:17;3.70;1.00
19732;DHT22;10017;54.350;18.532;2023-04-03T12:57:49;3.80;1.00
19732;DHT22;10017;54.350;18.532;2023-04-03T13:00:34;4.00;1.00
19732;DHT22;10017;54.350;18.532;2023-04-03T13:03:07;4.20;1.00
19732;DHT22;10017;54.350;18.532;2023-04-03T13:05:49;4.20;1.00
19732;DHT22;10017;54.350;18.532;2023-04-03T13:08:22;4.00;1.00
19732;DHT22;10017;54.350;18.532;2023-04-03T13:11:04;3.70;1.00
19732;DHT22;10017;54.350;18.532;2023-04-03T13:13:37;3.90;1.00
19732;DHT22;10017;54.350;18.532;2023-04-03T13:16:10;4.00;1.00
19732;DHT22;10017;54.350;18.532;2023-04-03T13:18:43;3.90;1.00
19732;DHT22;10017;54.350;18.532;2023-04-03T13:21:23;3.80;1.00
19732;DHT22;10017;54.350;18.532;2023-04-03T13:24:00;3.70;1.00
19732;DHT22;10017;54.350;18.532;2023-04-03T13:26:46;3.80;1.00
19732;DHT22;10017;54.350;18.532;2023-04-03T13:29:24;3.80;1.00
19732;DHT22;10017;54.350;18.532;2023-04-03T13:32:02;3.40;1.00
19732;DHT22;10017;54.350;18.532;2023-04-03T13:34:38;3.10;1.00
19732;DHT22;10017;54.350;18.532;2023-04-03T13:37:52;2.90;1.00
19732;DHT22;10017;54.350;18.532;2023-04-03T13:40:11;2.80;1.00
19732;DHT22;10017;54.350;18.532;2023-04-03T13:42:43;2.90;1.00
19732;DHT22;10017;54.350;18.532;2023-04-03T13:45:18;3.00;1.00
19732;DHT22;10017;54.350;18.532;2023-04-03T13:47:52;3.30;1.00
19732;DHT22;10017;54.350;18.532;2023-04-03T13:50:24;3.50;1.00
19732;DHT22;10017;54.350;18.532;2023-04-03T13:53:01;3.60;1.00
19732;DHT22;10017;54.350;18.532;2023-04-03T13:55:34;3.60;1.00
19732;DHT22;10017;54.350;18.532;2023-04-03T14:03:18;3.10;1.00
19732;DHT22;10017;54.350;18.532;2023-04-03T14:05:51;3.10;1.00
19732;DHT22;10017;54.350;18.532;2023-04-03T14:08:23;3.00;1.00
19732;DHT22;10017;54.350;18.532;2023-04-03T14:11:14;2.80;1.00
19732;DHT22;10017;54.350;18.532;2023-04-03T14:13:46;2.80;1.00
19732;DHT22;10017;54.350;18.532;2023-04-03T14:16:20;3.10;1.00
19732;DHT22;10017;54.350;18.532;2023-04-03T14:18:52;3.20;1.00
19732;DHT22;10017;54.350;18.532;2023-04-03T14:21:24;3.20;1.00
19732;DHT22;10017;54.350;18.532;2023-04-03T14:23:57;3.00;1.00
19732;DHT22;10017;54.350;18.532;2023-04-03T14:26:29;2.80;1.00
19732;DHT22;10017;54.350;18.532;2023-04-03T14:29:02;2.60;1.00
19732;DHT22;10017;54.350;18.532;2023-04-03T14:31:34;2.50;1.00
19732;DHT22;10017;54.350;18.532;2023-04-03T14:34:06;2.40;1.00
19732;DHT22;10017;54.350;18.532;2023-04-03T14:36:38;2.40;1.00
19732;DHT22;10017;54.350;18.532;2023-04-03T14:39:11;2.50;1.00
19732;DHT22;10017;54.350;18.532;2023-04-03T14:41:47;2.60;1.00
19732;DHT22;10017;54.350;18.532;2023-04-03T14:44:19;2.60;1.00
19732;DHT22;10017;54.350;18.532;2023-04-03T14:46:51;2.80;1.00
19732;DHT22;10017;54.350;18.532;2023-04-03T14:49:27;3.10;1.00
19732;DHT22;10017;54.350;18.532;2023-04-03T14:52:03;3.10;1.00
19732;DHT22;10017;54.350;18.532;2023-04-03T14:54:35;3.00;1.00
19732;DHT22;10017;54.350;18.532;2023-04-03T14:57:08;2.90;1.00
19732;DHT22;10017;54.350;18.532;2023-04-03T14:59:40;2.80;1.00
19732;DHT22;10017;54.350;18.532;2023-04-03T15:02:22;2.60;1.00
19732;DHT22;10017;54.350;18.532;2023-04-03T15:04:56;2.60;1.00
19732;DHT22;10017;54.350;18.532;2023-04-03T15:07:28;2.70;1.00
19732;DHT22;10017;54.350;18.532;2023-04-03T15:10:24;2.80;1.00
19732;DHT22;10017;54.350;18.532;2023-04-03T15:12:53;3.00;1.00
19732;DHT22;10017;54.350;18.532;2023-04-03T15:15:27;2.90;1.00
19732;DHT22;10017;54.350;18.532;2023-04-03T15:18:00;2.80;1.00
19732;DHT22;10017;54.350;18.532;2023-04-03T15:20:32;2.70;1.00
19732;DHT22;10017;54.350;18.532;2023-04-03T15:23:05;2.50;1.00
19732;DHT22;10017;54.350;18.532;2023-04-03T15:25:37;2.40;1.00
19732;DHT22;10017;54.350;18.532;2023-04-03T15:28:16;2.30;1.00
19732;DHT22;10017;54.350;18.532;2023-04-03T15:30:49;2.40;1.00
19732;DHT22;10017;54.350;18.532;2023-04-03T15:33:21;2.40;1.00
19732;DHT22;10017;54.350;18.532;2023-04-03T15:35:53;2.70;1.00
19732;DHT22;10017;54.350;18.532;2023-04-03T15:38:37;2.80;1.00
19732;DHT22;10017;54.350;18.532;2023-04-03T15:41:10;2.80;1.00
19732;DHT22;10017;54.350;18.532;2023-04-03T15:43:42;2.80;1.00
19732;DHT22;10017;54.350;18.532;2023-04-03T15:46:13;2.70;1.00
19732;DHT22;10017;54.350;18.532;2023-04-03T15:48:46;2.60;1.00
19732;DHT22;10017;54.350;18.532;2023-04-03T15:51:18;2.60;1.00
19732;DHT22;10017;54.350;18.532;2023-04-03T15:53:50;2.50;1.00
19732;DHT22;10017;54.350;18.532;2023-04-03T15:56:21;2.50;1.00
19732;DHT22;10017;54.350;18.532;2023-04-03T15:58:55;2.40;1.00
19732;DHT22;10017;54.350;18.532;2023-04-03T16:01:30;2.40;1.00
19732;DHT22;10017;54.350;18.532;2023-04-03T16:04:03;2.30;1.00
19732;DHT22;10017;54.350;18.532;2023-04-03T16:06:37;2.40;1.00
19732;DHT22;10017;54.350;18.532;2023-04-03T16:09:11;2.30;1.00
19732;DHT22;10017;54.350;18.532;2023-04-03T16:11:43;2.30;1.00
19732;DHT22;10017;54.350;18.532;2023-04-03T16:14:15;2.20;1.00
19732;DHT22;10017;54.350;18.532;2023-04-03T16:16:47;2.10;1.00
19732;DHT22;10017;54.350;18.532;2023-04-03T16:19:19;2.10;1.00
19732;DHT22;10017;54.350;18.532;2023-04-03T16:21:55;2.00;1.00
19732;DHT22;10017;54.350;18.532;2023-04-03T16:24:27;2.00;1.00
19732;DHT22;10017;54.350;18.532;2023-04-03T16:26:59;1.90;1.00
19732;DHT22;10017;54.350;18.532;2023-04-03T16:29:31;1.90;1.00
19732;DHT22;10017;54.350;18.532;2023-04-03T16:32:05;1.90;1.00
19732;DHT22;10017;54.350;18.532;2023-04-03T16:34:37;1.90;1.00
19732;DHT22;10017;54.350;18.532;2023-04-03T16:37:09;1.90;1.00
19732;DHT22;10017;54.350;18.532;2023-04-03T16:39:41;1.90;1.00
19732;DHT22;10017;54.350;18.532;2023-04-03T16:42:15;1.90;1.00
19732;DHT22;10017;54.350;18.532;2023-04-03T16:44:47;1.90;1.00
19732;DHT22;10017;54.350;18.532;2023-04-03T16:47:21;1.90;1.00
19732;DHT22;10017;54.350;18.532;2023-04-03T16:49:53;1.90;1.00
19732;DHT22;10017;54.350;18.532;2023-04-03T16:52:25;1.90;1.00
19732;DHT22;10017;54.350;18.532;2023-04-03T16:54:56;1.80;1.00
19732;DHT22;10017;54.350;18.532;2023-04-03T16:57:30;1.80;1.00
19732;DHT22;10017;54.350;18.532;2023-04-03T17:00:02;1.80;1.00
19732;DHT22;10017;54.350;18.532;2023-04-03T17:02:34;1.70;1.00
19732;DHT22;10017;54.350;18.532;2023-04-03T17:05:06;1.70;1.00
19732;DHT22;10017;54.350;18.532;2023-04-03T17:07:38;1.60;1.00
19732;DHT22;10017;54.350;18.532;2023-04-03T17:10:11;1.60;1.00
19732;DHT22;10017;54.350;18.532;2023-04-03T17:12:43;1.50;1.00
19732;DHT22;10017;54.350;18.532;2023-04-03T17:15:15;1.50;1.00
19732;DHT22;10017;54.350;18.532;2023-04-03T17:17:49;1.40;1.00
19732;DHT22;10017;54.350;18.532;2023-04-03T17:20:25;1.40;1.00
19732;DHT22;10017;54.350;18.532;2023-04-03T17:22:57;1.40;1.00
19732;DHT22;10017;54.350;18.532;2023-04-03T17:25:29;1.40;1.00
19732;DHT22;10017;54.350;18.532;2023-04-03T17:28:01;1.30;1.00
19732;DHT22;10017;54.350;18.532;2023-04-03T17:30:33;1.30;1.00
19732;DHT22;10017;54.350;18.532;2023-04-03T17:33:04;1.30;1.00
19732;DHT22;10017;54.350;18.532;2023-04-03T17:35:39;1.20;1.00
19732;DHT22;10017;54.350;18.532;2023-04-03T17:38:11;1.20;1.00
19732;DHT22;10017;54.350;18.532;2023-04-03T17:40:43;1.20;1.00
19732;DHT22;10017;54.350;18.532;2023-04-03T17:43:18;1.20;1.00
19732;DHT22;10017;54.350;18.532;2023-04-03T17:45:52;1.20;1.00
19732;DHT22;10017;54.350;18.532;2023-04-03T17:48:24;1.20;1.00
19732;DHT22;10017;54.350;18.532;2023-04-03T17:50:57;1.20;1.00
19732;DHT22;10017;54.350;18.532;2023-04-03T17:53:29;1.20;1.00
19732;DHT22;10017;54.350;18.532;2023-04-03T17:56:14;1.10;1.00
19732;DHT22;10017;54.350;18.532;2023-04-03T17:58:49;1.10;1.00
19732;DHT22;10017;54.350;18.532;2023-04-03T18:01:23;1.10;1.00